sensor_id;sensor_type;location;lat;lon;timestamp;P1;durP1;ratioP1;P2;durP2;ratioP2
50319;SDS011;36226;53.464;9.852;2023-12-28T00:01:22;4.10;;;1.42;;
50319;SDS011;36226;53.464;9.852;2023-12-28T00:03:48;1.98;;;1.27;;
50319;SDS011;36226;53.464;9.852;2023-12-28T00:06:13;5.00;;;1.60;;
50319;SDS011;36226;53.464;9.852;2023-12-28T00:08:39;1.80;;;1.30;;
50319;SDS011;36226;53.464;9.852;2023-12-28T00:11:05;3.60;;;1.60;;
50319;SDS011;36226;53.464;9.852;2023-12-28T00:13:30;1.88;;;1.05;;
50319;SDS011;36226;53.464;9.852;2023-12-28T00:15:55;3.20;;;1.38;;
50319;SDS011;36226;53.464;9.852;2023-12-28T00:18:21;3.10;;;1.50;;
50319;SDS011;36226;53.464;9.852;2023-12-28T00:20:46;3.08;;;1.60;;
50319;SDS011;36226;53.464;9.852;2023-12-28T00:23:11;3.40;;;1.42;;
50319;SDS011;36226;53.464;9.852;2023-12-28T00:25:37;3.95;;;1.33;;
50319;SDS011;36226;53.464;9.852;2023-12-28T00:28:02;2.90;;;1.20;;
50319;SDS011;36226;53.464;9.852;2023-12-28T00:30:28;3.22;;;1.60;;
50319;SDS011;36226;53.464;9.852;2023-12-28T00:32:53;3.58;;;1.50;;
50319;SDS011;36226;53.464;9.852;2023-12-28T00:35:19;3.30;;;1.63;;
50319;SDS011;36226;53.464;9.852;2023-12-28T00:37:44;3.60;;;1.60;;
50319;SDS011;36226;53.464;9.852;2023-12-28T00:40:10;2.83;;;1.35;;
50319;SDS011;36226;53.464;9.852;2023-12-28T00:42:35;3.58;;;1.90;;
50319;SDS011;36226;53.464;9.852;2023-12-28T00:45:01;4.78;;;1.73;;
50319;SDS011;36226;53.464;9.852;2023-12-28T00:47:27;2.78;;;1.33;;
50319;SDS011;36226;53.464;9.852;2023-12-28T00:49:52;4.88;;;1.60;;
50319;SDS011;36226;53.464;9.852;2023-12-28T00:52:18;2.72;;;1.80;;
50319;SDS011;36226;53.464;9.852;2023-12-28T00:54:43;3.63;;;1.30;;
50319;SDS011;36226;53.464;9.852;2023-12-28T00:57:08;4.85;;;1.35;;
50319;SDS011;36226;53.464;9.852;2023-12-28T00:59:34;3.42;;;1.55;;
50319;SDS011;36226;53.464;9.852;2023-12-28T01:01:59;4.43;;;1.70;;
50319;SDS011;36226;53.464;9.852;2023-12-28T01:04:24;3.45;;;1.52;;
50319;SDS011;36226;53.464;9.852;2023-12-28T01:06:50;4.03;;;1.80;;
50319;SDS011;36226;53.464;9.852;2023-12-28T01:09:16;3.42;;;1.45;;
50319;SDS011;36226;53.464;9.852;2023-12-28T01:11:41;3.47;;;1.48;;
50319;SDS011;36226;53.464;9.852;2023-12-28T01:14:07;3.28;;;1.50;;
50319;SDS011;36226;53.464;9.852;2023-12-28T01:16:32;3.05;;;1.58;;
50319;SDS011;36226;53.464;9.852;2023-12-28T01:18:57;4.68;;;1.63;;
50319;SDS011;36226;53.464;9.852;2023-12-28T01:21:23;3.58;;;1.77;;
50319;SDS011;36226;53.464;9.852;2023-12-28T01:23:50;3.47;;;1.75;;
50319;SDS011;36226;53.464;9.852;2023-12-28T01:26:16;4.35;;;1.70;;
50319;SDS011;36226;53.464;9.852;2023-12-28T01:28:42;2.60;;;1.55;;
50319;SDS011;36226;53.464;9.852;2023-12-28T01:31:07;5.28;;;1.67;;
50319;SDS011;36226;53.464;9.852;2023-12-28T01:33:33;4.05;;;1.85;;
50319;SDS011;36226;53.464;9.852;2023-12-28T01:35:58;5.45;;;1.70;;
50319;SDS011;36226;53.464;9.852;2023-12-28T01:38:24;3.85;;;1.60;;
50319;SDS011;36226;53.464;9.852;2023-12-28T01:40:49;4.95;;;1.48;;
50319;SDS011;36226;53.464;9.852;2023-12-28T01:43:15;4.05;;;1.67;;
50319;SDS011;36226;53.464;9.852;2023-12-28T01:45:40;4.90;;;1.75;;
50319;SDS011;36226;53.464;9.852;2023-12-28T01:48:05;5.45;;;1.88;;
50319;SDS011;36226;53.464;9.852;2023-12-28T01:50:31;3.47;;;1.77;;
50319;SDS011;36226;53.464;9.852;2023-12-28T01:52:57;3.65;;;1.83;;
50319;SDS011;36226;53.464;9.852;2023-12-28T01:55:24;3.92;;;1.70;;
50319;SDS011;36226;53.464;9.852;2023-12-28T01:57:50;3.90;;;1.70;;
50319;SDS011;36226;53.464;9.852;2023-12-28T02:00:15;4.90;;;1.80;;
50319;SDS011;36226;53.464;9.852;2023-12-28T02:02:40;6.05;;;2.15;;
50319;SDS011;36226;53.464;9.852;2023-12-28T02:05:07;3.80;;;2.03;;
50319;SDS011;36226;53.464;9.852;2023-12-28T02:07:32;3.47;;;1.50;;
50319;SDS011;36226;53.464;9.852;2023-12-28T02:09:59;3.17;;;1.80;;
50319;SDS011;36226;53.464;9.852;2023-12-28T02:12:24;5.63;;;1.70;;
50319;SDS011;36226;53.464;9.852;2023-12-28T02:14:49;2.92;;;1.70;;
50319;SDS011;36226;53.464;9.852;2023-12-28T02:17:16;4.65;;;1.75;;
50319;SDS011;36226;53.464;9.852;2023-12-28T02:19:50;6.10;;;1.80;;
50319;SDS011;36226;53.464;9.852;2023-12-28T02:22:16;2.50;;;1.80;;
50319;SDS011;36226;53.464;9.852;2023-12-28T02:27:41;2.92;;;1.95;;
50319;SDS011;36226;53.464;9.852;2023-12-28T02:30:15;4.93;;;1.73;;
50319;SDS011;36226;53.464;9.852;2023-12-28T02:35:33;3.55;;;1.92;;
50319;SDS011;36226;53.464;9.852;2023-12-28T02:38:10;6.00;;;2.63;;
50319;SDS011;36226;53.464;9.852;2023-12-28T02:40:36;6.32;;;2.08;;
50319;SDS011;36226;53.464;9.852;2023-12-28T02:43:06;4.68;;;2.30;;
50319;SDS011;36226;53.464;9.852;2023-12-28T02:45:32;3.97;;;2.10;;
50319;SDS011;36226;53.464;9.852;2023-12-28T02:47:57;5.50;;;2.17;;
50319;SDS011;36226;53.464;9.852;2023-12-28T02:50:22;4.32;;;2.00;;
50319;SDS011;36226;53.464;9.852;2023-12-28T02:52:48;3.40;;;1.98;;
50319;SDS011;36226;53.464;9.852;2023-12-28T02:55:13;4.88;;;2.38;;
50319;SDS011;36226;53.464;9.852;2023-12-28T02:57:39;4.70;;;2.47;;
50319;SDS011;36226;53.464;9.852;2023-12-28T03:00:05;3.85;;;2.40;;
50319;SDS011;36226;53.464;9.852;2023-12-28T03:02:31;3.88;;;2.10;;
50319;SDS011;36226;53.464;9.852;2023-12-28T03:04:57;4.22;;;2.50;;
50319;SDS011;36226;53.464;9.852;2023-12-28T03:07:22;2.95;;;2.17;;
50319;SDS011;36226;53.464;9.852;2023-12-28T03:09:47;4.78;;;2.40;;
50319;SDS011;36226;53.464;9.852;2023-12-28T03:12:13;4.72;;;2.10;;
50319;SDS011;36226;53.464;9.852;2023-12-28T03:14:38;4.05;;;2.47;;
50319;SDS011;36226;53.464;9.852;2023-12-28T03:17:03;4.00;;;2.30;;
50319;SDS011;36226;53.464;9.852;2023-12-28T03:19:29;3.90;;;2.25;;
50319;SDS011;36226;53.464;9.852;2023-12-28T03:21:54;4.70;;;2.50;;
50319;SDS011;36226;53.464;9.852;2023-12-28T03:24:19;4.68;;;2.50;;
50319;SDS011;36226;53.464;9.852;2023-12-28T03:26:45;4.43;;;2.45;;
50319;SDS011;36226;53.464;9.852;2023-12-28T03:29:10;5.82;;;2.47;;
50319;SDS011;36226;53.464;9.852;2023-12-28T03:31:39;6.03;;;2.35;;
50319;SDS011;36226;53.464;9.852;2023-12-28T03:34:04;2.97;;;2.00;;
50319;SDS011;36226;53.464;9.852;2023-12-28T03:36:30;5.75;;;2.15;;
50319;SDS011;36226;53.464;9.852;2023-12-28T03:38:55;5.28;;;2.30;;
50319;SDS011;36226;53.464;9.852;2023-12-28T03:41:21;3.92;;;2.50;;
50319;SDS011;36226;53.464;9.852;2023-12-28T03:43:46;5.75;;;2.38;;
50319;SDS011;36226;53.464;9.852;2023-12-28T03:46:12;4.30;;;2.25;;
50319;SDS011;36226;53.464;9.852;2023-12-28T03:48:38;4.45;;;2.13;;
50319;SDS011;36226;53.464;9.852;2023-12-28T03:51:04;7.43;;;2.70;;
50319;SDS011;36226;53.464;9.852;2023-12-28T03:53:29;4.18;;;2.03;;
50319;SDS011;36226;53.464;9.852;2023-12-28T03:55:58;8.13;;;2.30;;
50319;SDS011;36226;53.464;9.852;2023-12-28T03:58:23;6.28;;;2.15;;
50319;SDS011;36226;53.464;9.852;2023-12-28T04:00:48;6.88;;;2.28;;
50319;SDS011;36226;53.464;9.852;2023-12-28T04:03:14;3.53;;;2.20;;
50319;SDS011;36226;53.464;9.852;2023-12-28T04:05:39;4.93;;;2.22;;
50319;SDS011;36226;53.464;9.852;2023-12-28T04:08:05;3.72;;;2.40;;
50319;SDS011;36226;53.464;9.852;2023-12-28T04:10:32;2.90;;;2.17;;
50319;SDS011;36226;53.464;9.852;2023-12-28T04:12:58;5.50;;;2.08;;
50319;SDS011;36226;53.464;9.852;2023-12-28T04:15:24;3.67;;;2.30;;
50319;SDS011;36226;53.464;9.852;2023-12-28T04:17:50;7.00;;;2.22;;
50319;SDS011;36226;53.464;9.852;2023-12-28T04:20:15;4.53;;;2.20;;
50319;SDS011;36226;53.464;9.852;2023-12-28T04:22:41;4.13;;;1.95;;
50319;SDS011;36226;53.464;9.852;2023-12-28T04:25:08;4.68;;;2.08;;
50319;SDS011;36226;53.464;9.852;2023-12-28T04:27:37;6.93;;;2.40;;
50319;SDS011;36226;53.464;9.852;2023-12-28T04:30:03;3.83;;;2.10;;
50319;SDS011;36226;53.464;9.852;2023-12-28T04:32:30;5.63;;;2.28;;
50319;SDS011;36226;53.464;9.852;2023-12-28T04:34:56;3.80;;;2.00;;
50319;SDS011;36226;53.464;9.852;2023-12-28T04:37:21;3.63;;;2.30;;
50319;SDS011;36226;53.464;9.852;2023-12-28T04:39:47;4.03;;;1.83;;
50319;SDS011;36226;53.464;9.852;2023-12-28T04:42:12;5.80;;;2.88;;
50319;SDS011;36226;53.464;9.852;2023-12-28T04:44:38;5.22;;;2.00;;
50319;SDS011;36226;53.464;9.852;2023-12-28T04:47:04;6.07;;;2.30;;
50319;SDS011;36226;53.464;9.852;2023-12-28T04:49:29;5.57;;;2.30;;
50319;SDS011;36226;53.464;9.852;2023-12-28T04:51:55;5.28;;;2.40;;
50319;SDS011;36226;53.464;9.852;2023-12-28T04:54:20;6.85;;;2.20;;
50319;SDS011;36226;53.464;9.852;2023-12-28T04:56:46;4.18;;;2.55;;
50319;SDS011;36226;53.464;9.852;2023-12-28T04:59:11;4.35;;;2.35;;
50319;SDS011;36226;53.464;9.852;2023-12-28T05:01:40;6.25;;;2.55;;
50319;SDS011;36226;53.464;9.852;2023-12-28T05:04:07;4.45;;;2.72;;
50319;SDS011;36226;53.464;9.852;2023-12-28T05:06:33;4.53;;;2.22;;
50319;SDS011;36226;53.464;9.852;2023-12-28T05:08:58;7.30;;;2.53;;
50319;SDS011;36226;53.464;9.852;2023-12-28T05:11:24;5.18;;;2.60;;
50319;SDS011;36226;53.464;9.852;2023-12-28T05:13:49;7.53;;;2.53;;
50319;SDS011;36226;53.464;9.852;2023-12-28T05:16:14;5.05;;;2.42;;
50319;SDS011;36226;53.464;9.852;2023-12-28T05:18:40;6.43;;;2.53;;
50319;SDS011;36226;53.464;9.852;2023-12-28T05:21:05;5.75;;;2.97;;
50319;SDS011;36226;53.464;9.852;2023-12-28T05:23:31;7.32;;;2.67;;
50319;SDS011;36226;53.464;9.852;2023-12-28T05:25:56;5.80;;;2.40;;
50319;SDS011;36226;53.464;9.852;2023-12-28T05:28:21;4.25;;;2.63;;
50319;SDS011;36226;53.464;9.852;2023-12-28T05:30:47;5.10;;;2.10;;
50319;SDS011;36226;53.464;9.852;2023-12-28T05:33:12;5.47;;;2.50;;
50319;SDS011;36226;53.464;9.852;2023-12-28T05:35:38;5.53;;;2.30;;
50319;SDS011;36226;53.464;9.852;2023-12-28T05:38:06;5.18;;;2.30;;
50319;SDS011;36226;53.464;9.852;2023-12-28T05:40:35;9.25;;;2.20;;
50319;SDS011;36226;53.464;9.852;2023-12-28T05:43:03;2.75;;;1.85;;
50319;SDS011;36226;53.464;9.852;2023-12-28T05:45:28;3.25;;;2.25;;
50319;SDS011;36226;53.464;9.852;2023-12-28T05:47:57;7.25;;;2.30;;
50319;SDS011;36226;53.464;9.852;2023-12-28T05:50:22;5.78;;;2.60;;
50319;SDS011;36226;53.464;9.852;2023-12-28T05:52:48;6.47;;;2.30;;
50319;SDS011;36226;53.464;9.852;2023-12-28T05:55:13;5.20;;;1.80;;
50319;SDS011;36226;53.464;9.852;2023-12-28T05:57:41;8.45;;;2.30;;
50319;SDS011;36226;53.464;9.852;2023-12-28T06:00:09;3.40;;;2.20;;
50319;SDS011;36226;53.464;9.852;2023-12-28T06:02:36;6.18;;;2.40;;
50319;SDS011;36226;53.464;9.852;2023-12-28T06:05:01;4.72;;;2.60;;
50319;SDS011;36226;53.464;9.852;2023-12-28T06:07:26;6.20;;;2.25;;
50319;SDS011;36226;53.464;9.852;2023-12-28T06:09:52;7.18;;;2.17;;
50319;SDS011;36226;53.464;9.852;2023-12-28T06:12:17;3.95;;;2.38;;
50319;SDS011;36226;53.464;9.852;2023-12-28T06:14:42;7.78;;;2.15;;
50319;SDS011;36226;53.464;9.852;2023-12-28T06:17:08;5.03;;;2.00;;
50319;SDS011;36226;53.464;9.852;2023-12-28T06:19:33;6.38;;;2.28;;
50319;SDS011;36226;53.464;9.852;2023-12-28T06:21:58;6.82;;;2.10;;
50319;SDS011;36226;53.464;9.852;2023-12-28T06:24:24;4.18;;;2.13;;
50319;SDS011;36226;53.464;9.852;2023-12-28T06:26:49;4.35;;;2.38;;
50319;SDS011;36226;53.464;9.852;2023-12-28T06:29:15;5.45;;;2.22;;
50319;SDS011;36226;53.464;9.852;2023-12-28T06:31:41;5.90;;;2.03;;
50319;SDS011;36226;53.464;9.852;2023-12-28T06:34:06;6.32;;;2.22;;
50319;SDS011;36226;53.464;9.852;2023-12-28T06:36:32;6.53;;;2.05;;
50319;SDS011;36226;53.464;9.852;2023-12-28T06:38:58;6.60;;;2.00;;
50319;SDS011;36226;53.464;9.852;2023-12-28T06:41:23;3.63;;;2.20;;
50319;SDS011;36226;53.464;9.852;2023-12-28T06:43:52;5.43;;;2.20;;
50319;SDS011;36226;53.464;9.852;2023-12-28T06:46:17;4.70;;;1.83;;
50319;SDS011;36226;53.464;9.852;2023-12-28T06:48:43;5.43;;;2.15;;
50319;SDS011;36226;53.464;9.852;2023-12-28T06:51:09;6.57;;;1.85;;
50319;SDS011;36226;53.464;9.852;2023-12-28T06:53:35;3.35;;;1.67;;
50319;SDS011;36226;53.464;9.852;2023-12-28T06:56:00;3.78;;;2.30;;
50319;SDS011;36226;53.464;9.852;2023-12-28T06:58:25;4.47;;;2.50;;
50319;SDS011;36226;53.464;9.852;2023-12-28T07:00:51;3.40;;;2.00;;
50319;SDS011;36226;53.464;9.852;2023-12-28T07:03:16;7.75;;;2.40;;
50319;SDS011;36226;53.464;9.852;2023-12-28T07:05:42;5.15;;;2.08;;
50319;SDS011;36226;53.464;9.852;2023-12-28T07:08:07;5.45;;;2.30;;
50319;SDS011;36226;53.464;9.852;2023-12-28T07:10:32;4.22;;;1.88;;
50319;SDS011;36226;53.464;9.852;2023-12-28T07:12:58;5.65;;;2.30;;
50319;SDS011;36226;53.464;9.852;2023-12-28T07:15:23;5.88;;;2.08;;
50319;SDS011;36226;53.464;9.852;2023-12-28T07:17:48;5.38;;;1.85;;
50319;SDS011;36226;53.464;9.852;2023-12-28T07:20:14;4.53;;;2.10;;
50319;SDS011;36226;53.464;9.852;2023-12-28T07:22:39;7.10;;;2.10;;
50319;SDS011;36226;53.464;9.852;2023-12-28T07:25:05;4.95;;;1.90;;
50319;SDS011;36226;53.464;9.852;2023-12-28T07:27:31;7.38;;;2.00;;
50319;SDS011;36226;53.464;9.852;2023-12-28T07:29:57;6.00;;;2.03;;
50319;SDS011;36226;53.464;9.852;2023-12-28T07:32:22;5.72;;;1.90;;
50319;SDS011;36226;53.464;9.852;2023-12-28T07:34:51;5.18;;;2.22;;
50319;SDS011;36226;53.464;9.852;2023-12-28T07:37:19;5.50;;;2.05;;
50319;SDS011;36226;53.464;9.852;2023-12-28T07:39:44;4.50;;;1.30;;
50319;SDS011;36226;53.464;9.852;2023-12-28T07:42:10;8.80;;;1.95;;
50319;SDS011;36226;53.464;9.852;2023-12-28T07:44:35;6.90;;;2.10;;
50319;SDS011;36226;53.464;9.852;2023-12-28T07:47:01;8.15;;;1.80;;
50319;SDS011;36226;53.464;9.852;2023-12-28T07:49:26;6.95;;;2.08;;
50319;SDS011;36226;53.464;9.852;2023-12-28T07:51:52;8.10;;;2.08;;
50319;SDS011;36226;53.464;9.852;2023-12-28T07:54:17;7.78;;;2.70;;
50319;SDS011;36226;53.464;9.852;2023-12-28T07:56:42;5.97;;;1.95;;
50319;SDS011;36226;53.464;9.852;2023-12-28T07:59:08;6.50;;;1.70;;
50319;SDS011;36226;53.464;9.852;2023-12-28T08:01:34;7.32;;;1.92;;
50319;SDS011;36226;53.464;9.852;2023-12-28T08:04:00;4.47;;;1.58;;
50319;SDS011;36226;53.464;9.852;2023-12-28T08:06:26;8.43;;;2.20;;
50319;SDS011;36226;53.464;9.852;2023-12-28T08:08:52;2.72;;;1.20;;
50319;SDS011;36226;53.464;9.852;2023-12-28T08:11:18;8.63;;;2.00;;
50319;SDS011;36226;53.464;9.852;2023-12-28T08:13:44;7.38;;;1.65;;
50319;SDS011;36226;53.464;9.852;2023-12-28T08:16:09;4.82;;;1.45;;
50319;SDS011;36226;53.464;9.852;2023-12-28T08:18:35;5.68;;;1.60;;
50319;SDS011;36226;53.464;9.852;2023-12-28T08:21:00;4.05;;;1.45;;
50319;SDS011;36226;53.464;9.852;2023-12-28T08:23:25;4.38;;;1.55;;
50319;SDS011;36226;53.464;9.852;2023-12-28T08:25:51;7.07;;;1.65;;
50319;SDS011;36226;53.464;9.852;2023-12-28T08:28:16;4.90;;;1.50;;
50319;SDS011;36226;53.464;9.852;2023-12-28T08:30:42;6.30;;;1.52;;
50319;SDS011;36226;53.464;9.852;2023-12-28T08:33:07;5.22;;;1.75;;
50319;SDS011;36226;53.464;9.852;2023-12-28T08:35:32;5.78;;;1.40;;
50319;SDS011;36226;53.464;9.852;2023-12-28T08:37:58;6.28;;;1.65;;
50319;SDS011;36226;53.464;9.852;2023-12-28T08:40:23;4.13;;;1.40;;
50319;SDS011;36226;53.464;9.852;2023-12-28T08:42:48;5.97;;;1.50;;
50319;SDS011;36226;53.464;9.852;2023-12-28T08:45:14;8.80;;;1.90;;
50319;SDS011;36226;53.464;9.852;2023-12-28T08:47:39;5.88;;;1.50;;
50319;SDS011;36226;53.464;9.852;2023-12-28T08:50:05;9.48;;;2.00;;
50319;SDS011;36226;53.464;9.852;2023-12-28T08:52:30;5.47;;;1.50;;
50319;SDS011;36226;53.464;9.852;2023-12-28T08:54:56;7.47;;;1.38;;
50319;SDS011;36226;53.464;9.852;2023-12-28T08:57:21;5.57;;;1.30;;
50319;SDS011;36226;53.464;9.852;2023-12-28T08:59:46;3.30;;;1.40;;
50319;SDS011;36226;53.464;9.852;2023-12-28T09:02:12;8.02;;;1.92;;
50319;SDS011;36226;53.464;9.852;2023-12-28T09:04:37;5.43;;;1.55;;
50319;SDS011;36226;53.464;9.852;2023-12-28T09:07:03;8.02;;;1.60;;
50319;SDS011;36226;53.464;9.852;2023-12-28T09:09:29;6.85;;;1.60;;
50319;SDS011;36226;53.464;9.852;2023-12-28T09:11:55;3.63;;;1.38;;
50319;SDS011;36226;53.464;9.852;2023-12-28T09:14:21;3.75;;;1.25;;
50319;SDS011;36226;53.464;9.852;2023-12-28T09:16:47;5.68;;;1.13;;
50319;SDS011;36226;53.464;9.852;2023-12-28T09:19:12;6.28;;;1.75;;
50319;SDS011;36226;53.464;9.852;2023-12-28T09:21:38;9.32;;;1.50;;
50319;SDS011;36226;53.464;9.852;2023-12-28T09:24:03;5.82;;;1.80;;
50319;SDS011;36226;53.464;9.852;2023-12-28T09:26:28;6.93;;;1.60;;
50319;SDS011;36226;53.464;9.852;2023-12-28T09:28:54;4.15;;;1.80;;
50319;SDS011;36226;53.464;9.852;2023-12-28T09:31:20;6.47;;;1.42;;
50319;SDS011;36226;53.464;9.852;2023-12-28T09:33:45;7.53;;;1.27;;
50319;SDS011;36226;53.464;9.852;2023-12-28T09:36:10;6.63;;;1.73;;
50319;SDS011;36226;53.464;9.852;2023-12-28T09:38:38;3.70;;;1.05;;
50319;SDS011;36226;53.464;9.852;2023-12-28T09:41:10;9.27;;;1.60;;
50319;SDS011;36226;53.464;9.852;2023-12-28T09:43:41;5.88;;;1.58;;
50319;SDS011;36226;53.464;9.852;2023-12-28T09:46:17;7.03;;;1.95;;
50319;SDS011;36226;53.464;9.852;2023-12-28T09:48:42;7.65;;;1.27;;
50319;SDS011;36226;53.464;9.852;2023-12-28T09:51:08;8.10;;;1.75;;
50319;SDS011;36226;53.464;9.852;2023-12-28T09:53:38;10.10;;;1.50;;
50319;SDS011;36226;53.464;9.852;2023-12-28T09:56:03;6.70;;;1.65;;
50319;SDS011;36226;53.464;9.852;2023-12-28T09:58:29;5.18;;;1.20;;
50319;SDS011;36226;53.464;9.852;2023-12-28T10:00:57;11.02;;;1.58;;
50319;SDS011;36226;53.464;9.852;2023-12-28T10:03:24;9.52;;;1.80;;
50319;SDS011;36226;53.464;9.852;2023-12-28T10:05:49;5.35;;;1.45;;
50319;SDS011;36226;53.464;9.852;2023-12-28T10:08:15;9.85;;;1.90;;
50319;SDS011;36226;53.464;9.852;2023-12-28T10:10:41;7.55;;;1.27;;
50319;SDS011;36226;53.464;9.852;2023-12-28T10:13:07;10.35;;;1.30;;
50319;SDS011;36226;53.464;9.852;2023-12-28T10:15:33;7.28;;;1.63;;
50319;SDS011;36226;53.464;9.852;2023-12-28T10:17:59;7.03;;;1.50;;
50319;SDS011;36226;53.464;9.852;2023-12-28T10:20:28;6.82;;;1.17;;
50319;SDS011;36226;53.464;9.852;2023-12-28T10:22:53;7.95;;;1.38;;
50319;SDS011;36226;53.464;9.852;2023-12-28T10:25:19;5.50;;;1.38;;
50319;SDS011;36226;53.464;9.852;2023-12-28T10:27:44;8.57;;;1.92;;
50319;SDS011;36226;53.464;9.852;2023-12-28T10:30:10;9.45;;;1.42;;
50319;SDS011;36226;53.464;9.852;2023-12-28T10:32:39;8.77;;;1.50;;
50319;SDS011;36226;53.464;9.852;2023-12-28T10:35:05;7.30;;;1.10;;
50319;SDS011;36226;53.464;9.852;2023-12-28T10:37:31;5.65;;;1.50;;
50319;SDS011;36226;53.464;9.852;2023-12-28T10:39:57;9.95;;;1.50;;
50319;SDS011;36226;53.464;9.852;2023-12-28T10:42:28;5.50;;;1.30;;
50319;SDS011;36226;53.464;9.852;2023-12-28T10:45:01;8.07;;;1.38;;
50319;SDS011;36226;53.464;9.852;2023-12-28T10:47:34;7.85;;;1.42;;
50319;SDS011;36226;53.464;9.852;2023-12-28T10:50:03;5.35;;;1.17;;
50319;SDS011;36226;53.464;9.852;2023-12-28T10:52:30;5.45;;;1.20;;
50319;SDS011;36226;53.464;9.852;2023-12-28T10:55:18;10.75;;;1.70;;
50319;SDS011;36226;53.464;9.852;2023-12-28T10:58:01;4.88;;;1.05;;
50319;SDS011;36226;53.464;9.852;2023-12-28T11:00:33;8.18;;;1.45;;
50319;SDS011;36226;53.464;9.852;2023-12-28T11:03:05;6.03;;;1.58;;
50319;SDS011;36226;53.464;9.852;2023-12-28T11:05:34;7.72;;;1.67;;
50319;SDS011;36226;53.464;9.852;2023-12-28T11:08:00;6.30;;;1.60;;
50319;SDS011;36226;53.464;9.852;2023-12-28T11:10:28;4.80;;;1.70;;
50319;SDS011;36226;53.464;9.852;2023-12-28T11:12:56;8.52;;;1.40;;
50319;SDS011;36226;53.464;9.852;2023-12-28T11:15:21;11.88;;;2.13;;
50319;SDS011;36226;53.464;9.852;2023-12-28T11:17:48;11.23;;;2.47;;
50319;SDS011;36226;53.464;9.852;2023-12-28T11:20:14;10.00;;;2.20;;
50319;SDS011;36226;53.464;9.852;2023-12-28T11:22:40;13.15;;;1.77;;
50319;SDS011;36226;53.464;9.852;2023-12-28T11:25:05;11.90;;;1.75;;
50319;SDS011;36226;53.464;9.852;2023-12-28T11:27:37;10.98;;;2.58;;
50319;SDS011;36226;53.464;9.852;2023-12-28T11:30:05;6.78;;;1.77;;
50319;SDS011;36226;53.464;9.852;2023-12-28T11:32:38;7.93;;;1.77;;
50319;SDS011;36226;53.464;9.852;2023-12-28T11:35:06;7.63;;;1.83;;
50319;SDS011;36226;53.464;9.852;2023-12-28T11:37:34;11.30;;;2.80;;
50319;SDS011;36226;53.464;9.852;2023-12-28T11:40:09;12.35;;;1.70;;
50319;SDS011;36226;53.464;9.852;2023-12-28T11:42:35;10.52;;;2.30;;
50319;SDS011;36226;53.464;9.852;2023-12-28T11:45:00;13.98;;;3.28;;
50319;SDS011;36226;53.464;9.852;2023-12-28T11:47:26;13.18;;;2.78;;
50319;SDS011;36226;53.464;9.852;2023-12-28T11:49:54;10.80;;;4.65;;
50319;SDS011;36226;53.464;9.852;2023-12-28T11:54:51;9.20;;;1.65;;
50319;SDS011;36226;53.464;9.852;2023-12-28T11:57:16;10.65;;;2.55;;
50319;SDS011;36226;53.464;9.852;2023-12-28T11:59:41;11.43;;;2.72;;
50319;SDS011;36226;53.464;9.852;2023-12-28T12:02:07;11.25;;;3.10;;
50319;SDS011;36226;53.464;9.852;2023-12-28T12:04:33;14.63;;;3.08;;
50319;SDS011;36226;53.464;9.852;2023-12-28T12:07:01;9.48;;;2.15;;
50319;SDS011;36226;53.464;9.852;2023-12-28T12:09:28;14.32;;;2.13;;
50319;SDS011;36226;53.464;9.852;2023-12-28T12:11:53;16.45;;;3.38;;
50319;SDS011;36226;53.464;9.852;2023-12-28T12:14:18;12.07;;;3.10;;
50319;SDS011;36226;53.464;9.852;2023-12-28T12:16:44;18.17;;;6.85;;
50319;SDS011;36226;53.464;9.852;2023-12-28T12:19:10;13.23;;;2.00;;
50319;SDS011;36226;53.464;9.852;2023-12-28T12:21:35;13.15;;;2.03;;
50319;SDS011;36226;53.464;9.852;2023-12-28T12:24:01;18.08;;;3.88;;
50319;SDS011;36226;53.464;9.852;2023-12-28T12:26:26;12.10;;;2.88;;
50319;SDS011;36226;53.464;9.852;2023-12-28T12:28:54;9.10;;;1.90;;
50319;SDS011;36226;53.464;9.852;2023-12-28T12:31:20;10.95;;;2.20;;
50319;SDS011;36226;53.464;9.852;2023-12-28T12:33:45;12.55;;;1.95;;
50319;SDS011;36226;53.464;9.852;2023-12-28T12:36:11;8.95;;;1.77;;
50319;SDS011;36226;53.464;9.852;2023-12-28T12:38:36;9.27;;;2.05;;
50319;SDS011;36226;53.464;9.852;2023-12-28T12:41:01;8.90;;;1.48;;
50319;SDS011;36226;53.464;9.852;2023-12-28T12:43:27;11.02;;;2.08;;
50319;SDS011;36226;53.464;9.852;2023-12-28T12:45:53;11.55;;;1.52;;
50319;SDS011;36226;53.464;9.852;2023-12-28T12:48:18;11.88;;;1.48;;
50319;SDS011;36226;53.464;9.852;2023-12-28T12:50:44;13.95;;;1.95;;
50319;SDS011;36226;53.464;9.852;2023-12-28T12:53:10;9.38;;;1.90;;
50319;SDS011;36226;53.464;9.852;2023-12-28T12:55:36;12.73;;;1.90;;
50319;SDS011;36226;53.464;9.852;2023-12-28T12:58:04;13.15;;;1.90;;
50319;SDS011;36226;53.464;9.852;2023-12-28T13:00:30;8.80;;;1.75;;
50319;SDS011;36226;53.464;9.852;2023-12-28T13:02:55;13.02;;;1.95;;
50319;SDS011;36226;53.464;9.852;2023-12-28T13:05:24;16.17;;;1.77;;
50319;SDS011;36226;53.464;9.852;2023-12-28T13:07:50;13.40;;;2.05;;
50319;SDS011;36226;53.464;9.852;2023-12-28T13:10:16;9.70;;;1.65;;
50319;SDS011;36226;53.464;9.852;2023-12-28T13:12:41;7.88;;;1.55;;
50319;SDS011;36226;53.464;9.852;2023-12-28T13:15:07;9.90;;;2.35;;
50319;SDS011;36226;53.464;9.852;2023-12-28T13:17:34;8.45;;;1.40;;
50319;SDS011;36226;53.464;9.852;2023-12-28T13:20:01;14.50;;;1.75;;
50319;SDS011;36226;53.464;9.852;2023-12-28T13:22:26;6.10;;;1.45;;
50319;SDS011;36226;53.464;9.852;2023-12-28T13:24:51;7.80;;;1.38;;
50319;SDS011;36226;53.464;9.852;2023-12-28T13:27:17;12.25;;;1.70;;
50319;SDS011;36226;53.464;9.852;2023-12-28T13:29:42;11.68;;;2.25;;
50319;SDS011;36226;53.464;9.852;2023-12-28T13:32:08;10.60;;;1.60;;
50319;SDS011;36226;53.464;9.852;2023-12-28T13:34:33;11.52;;;1.67;;
50319;SDS011;36226;53.464;9.852;2023-12-28T13:36:59;9.18;;;1.40;;
50319;SDS011;36226;53.464;9.852;2023-12-28T13:39:26;14.85;;;1.73;;
50319;SDS011;36226;53.464;9.852;2023-12-28T13:41:53;10.85;;;1.42;;
50319;SDS011;36226;53.464;9.852;2023-12-28T13:44:19;12.07;;;1.70;;
50319;SDS011;36226;53.464;9.852;2023-12-28T13:46:44;9.07;;;1.65;;
50319;SDS011;36226;53.464;9.852;2023-12-28T13:49:10;9.35;;;1.80;;
50319;SDS011;36226;53.464;9.852;2023-12-28T13:51:35;15.10;;;1.85;;
50319;SDS011;36226;53.464;9.852;2023-12-28T13:54:00;13.07;;;1.63;;
50319;SDS011;36226;53.464;9.852;2023-12-28T13:56:26;8.85;;;1.40;;
50319;SDS011;36226;53.464;9.852;2023-12-28T13:58:51;16.58;;;2.33;;
50319;SDS011;36226;53.464;9.852;2023-12-28T14:01:17;9.40;;;1.60;;
50319;SDS011;36226;53.464;9.852;2023-12-28T14:03:42;8.63;;;1.65;;
50319;SDS011;36226;53.464;9.852;2023-12-28T14:06:09;14.55;;;1.60;;
50319;SDS011;36226;53.464;9.852;2023-12-28T14:08:34;8.75;;;1.80;;
50319;SDS011;36226;53.464;9.852;2023-12-28T14:10:59;12.98;;;1.70;;
50319;SDS011;36226;53.464;9.852;2023-12-28T14:13:25;10.02;;;1.88;;
50319;SDS011;36226;53.464;9.852;2023-12-28T14:15:50;12.43;;;1.92;;
50319;SDS011;36226;53.464;9.852;2023-12-28T14:18:16;13.48;;;2.08;;
50319;SDS011;36226;53.464;9.852;2023-12-28T14:20:41;17.83;;;3.22;;
50319;SDS011;36226;53.464;9.852;2023-12-28T14:23:06;11.63;;;1.80;;
50319;SDS011;36226;53.464;9.852;2023-12-28T14:25:32;8.32;;;2.15;;
50319;SDS011;36226;53.464;9.852;2023-12-28T14:27:58;9.55;;;1.70;;
50319;SDS011;36226;53.464;9.852;2023-12-28T14:30:24;16.50;;;2.63;;
50319;SDS011;36226;53.464;9.852;2023-12-28T14:32:49;15.07;;;2.15;;
50319;SDS011;36226;53.464;9.852;2023-12-28T14:35:15;9.15;;;1.80;;
50319;SDS011;36226;53.464;9.852;2023-12-28T14:37:44;12.05;;;2.80;;
50319;SDS011;36226;53.464;9.852;2023-12-28T14:40:09;13.65;;;2.38;;
50319;SDS011;36226;53.464;9.852;2023-12-28T14:42:36;7.28;;;1.73;;
50319;SDS011;36226;53.464;9.852;2023-12-28T14:45:02;10.93;;;1.90;;
50319;SDS011;36226;53.464;9.852;2023-12-28T14:47:28;9.45;;;1.70;;